sensor_id;sensor_type;location;lat;lon;timestamp;P1;durP1;ratioP1;P2;durP2;ratioP2
5428;SDS011;2737;52.386;9.980;2023-10-19T00:01:22;22.60;;;10.97;;
5428;SDS011;2737;52.386;9.980;2023-10-19T00:03:51;19.77;;;11.90;;
5428;SDS011;2737;52.386;9.980;2023-10-19T00:06:21;23.37;;;13.00;;
5428;SDS011;2737;52.386;9.980;2023-10-19T00:08:48;23.87;;;13.13;;
5428;SDS011;2737;52.386;9.980;2023-10-19T00:11:17;21.47;;;13.20;;
5428;SDS011;2737;52.386;9.980;2023-10-19T00:13:48;23.00;;;12.37;;
5428;SDS011;2737;52.386;9.980;2023-10-19T00:16:16;30.43;;;14.40;;
5428;SDS011;2737;52.386;9.980;2023-10-19T00:18:42;25.80;;;15.30;;
5428;SDS011;2737;52.386;9.980;2023-10-19T00:21:09;24.30;;;15.27;;
5428;SDS011;2737;52.386;9.980;2023-10-19T00:23:44;27.47;;;15.77;;
5428;SDS011;2737;52.386;9.980;2023-10-19T00:26:14;22.53;;;14.83;;
5428;SDS011;2737;52.386;9.980;2023-10-19T00:28:44;26.87;;;14.90;;
5428;SDS011;2737;52.386;9.980;2023-10-19T00:31:16;22.77;;;13.90;;
5428;SDS011;2737;52.386;9.980;2023-10-19T00:33:45;24.47;;;14.37;;
5428;SDS011;2737;52.386;9.980;2023-10-19T00:36:12;24.13;;;15.30;;
5428;SDS011;2737;52.386;9.980;2023-10-19T00:38:39;21.70;;;13.67;;
5428;SDS011;2737;52.386;9.980;2023-10-19T00:41:13;24.67;;;14.60;;
5428;SDS011;2737;52.386;9.980;2023-10-19T00:43:46;24.63;;;15.40;;
5428;SDS011;2737;52.386;9.980;2023-10-19T00:46:16;23.70;;;15.00;;
5428;SDS011;2737;52.386;9.980;2023-10-19T00:48:47;27.10;;;15.90;;
5428;SDS011;2737;52.386;9.980;2023-10-19T00:51:16;26.80;;;15.70;;
5428;SDS011;2737;52.386;9.980;2023-10-19T00:53:54;25.17;;;15.90;;
5428;SDS011;2737;52.386;9.980;2023-10-19T00:56:22;23.37;;;14.13;;
5428;SDS011;2737;52.386;9.980;2023-10-19T00:58:51;28.47;;;16.33;;
5428;SDS011;2737;52.386;9.980;2023-10-19T01:01:26;26.07;;;15.10;;
5428;SDS011;2737;52.386;9.980;2023-10-19T01:03:55;33.43;;;17.53;;
5428;SDS011;2737;52.386;9.980;2023-10-19T01:06:23;25.37;;;15.80;;
5428;SDS011;2737;52.386;9.980;2023-10-19T01:08:50;31.80;;;17.53;;
5428;SDS011;2737;52.386;9.980;2023-10-19T01:11:18;27.77;;;15.70;;
5428;SDS011;2737;52.386;9.980;2023-10-19T01:13:48;28.73;;;16.40;;
5428;SDS011;2737;52.386;9.980;2023-10-19T01:16:17;30.50;;;16.63;;
5428;SDS011;2737;52.386;9.980;2023-10-19T01:18:49;32.87;;;16.13;;
5428;SDS011;2737;52.386;9.980;2023-10-19T01:21:19;26.93;;;15.47;;
5428;SDS011;2737;52.386;9.980;2023-10-19T01:23:54;27.47;;;16.17;;
5428;SDS011;2737;52.386;9.980;2023-10-19T01:26:21;27.50;;;16.57;;
5428;SDS011;2737;52.386;9.980;2023-10-19T01:28:51;34.73;;;17.17;;
5428;SDS011;2737;52.386;9.980;2023-10-19T01:31:26;34.67;;;19.90;;
5428;SDS011;2737;52.386;9.980;2023-10-19T01:34:03;35.13;;;18.53;;
5428;SDS011;2737;52.386;9.980;2023-10-19T01:36:30;32.67;;;17.83;;
5428;SDS011;2737;52.386;9.980;2023-10-19T01:39:04;32.50;;;18.70;;
5428;SDS011;2737;52.386;9.980;2023-10-19T01:41:35;36.13;;;18.70;;
5428;SDS011;2737;52.386;9.980;2023-10-19T01:44:02;38.07;;;17.90;;
5428;SDS011;2737;52.386;9.980;2023-10-19T01:46:31;28.93;;;17.10;;
5428;SDS011;2737;52.386;9.980;2023-10-19T01:49:00;28.13;;;16.73;;
5428;SDS011;2737;52.386;9.980;2023-10-19T01:51:29;31.30;;;17.87;;
5428;SDS011;2737;52.386;9.980;2023-10-19T01:53:58;33.40;;;18.83;;
5428;SDS011;2737;52.386;9.980;2023-10-19T01:56:28;31.60;;;18.57;;
5428;SDS011;2737;52.386;9.980;2023-10-19T01:58:54;31.93;;;18.47;;
5428;SDS011;2737;52.386;9.980;2023-10-19T02:01:22;33.10;;;19.80;;
5428;SDS011;2737;52.386;9.980;2023-10-19T02:03:54;29.80;;;18.73;;
5428;SDS011;2737;52.386;9.980;2023-10-19T02:06:23;34.87;;;19.07;;
5428;SDS011;2737;52.386;9.980;2023-10-19T02:08:52;40.97;;;20.97;;
5428;SDS011;2737;52.386;9.980;2023-10-19T02:11:22;36.87;;;19.37;;
5428;SDS011;2737;52.386;9.980;2023-10-19T02:13:50;37.90;;;21.70;;
5428;SDS011;2737;52.386;9.980;2023-10-19T02:16:19;38.27;;;21.37;;
5428;SDS011;2737;52.386;9.980;2023-10-19T02:18:47;39.70;;;21.70;;
5428;SDS011;2737;52.386;9.980;2023-10-19T02:21:15;39.40;;;22.83;;
5428;SDS011;2737;52.386;9.980;2023-10-19T02:23:47;37.53;;;21.53;;
5428;SDS011;2737;52.386;9.980;2023-10-19T02:26:15;40.03;;;21.80;;
5428;SDS011;2737;52.386;9.980;2023-10-19T02:28:45;38.40;;;20.47;;
5428;SDS011;2737;52.386;9.980;2023-10-19T02:31:12;38.00;;;21.10;;
5428;SDS011;2737;52.386;9.980;2023-10-19T02:33:44;34.40;;;18.33;;
5428;SDS011;2737;52.386;9.980;2023-10-19T02:36:11;38.00;;;19.43;;
5428;SDS011;2737;52.386;9.980;2023-10-19T02:38:41;38.67;;;20.77;;
5428;SDS011;2737;52.386;9.980;2023-10-19T02:41:13;37.70;;;20.33;;
5428;SDS011;2737;52.386;9.980;2023-10-19T02:43:40;39.60;;;20.10;;
5428;SDS011;2737;52.386;9.980;2023-10-19T02:46:10;35.73;;;20.23;;
5428;SDS011;2737;52.386;9.980;2023-10-19T02:48:38;34.10;;;19.53;;
5428;SDS011;2737;52.386;9.980;2023-10-19T02:51:09;41.53;;;20.70;;
5428;SDS011;2737;52.386;9.980;2023-10-19T02:53:36;35.67;;;20.17;;
5428;SDS011;2737;52.386;9.980;2023-10-19T02:56:11;37.10;;;21.23;;
5428;SDS011;2737;52.386;9.980;2023-10-19T02:58:41;36.77;;;21.27;;
5428;SDS011;2737;52.386;9.980;2023-10-19T03:01:14;38.40;;;20.50;;
5428;SDS011;2737;52.386;9.980;2023-10-19T03:03:45;42.03;;;20.13;;
5428;SDS011;2737;52.386;9.980;2023-10-19T03:06:12;40.23;;;22.27;;
5428;SDS011;2737;52.386;9.980;2023-10-19T03:08:39;36.90;;;21.93;;
5428;SDS011;2737;52.386;9.980;2023-10-19T03:11:05;45.67;;;22.37;;
5428;SDS011;2737;52.386;9.980;2023-10-19T03:13:34;40.10;;;22.53;;
5428;SDS011;2737;52.386;9.980;2023-10-19T03:16:00;38.93;;;20.63;;
5428;SDS011;2737;52.386;9.980;2023-10-19T03:18:34;43.70;;;22.50;;
5428;SDS011;2737;52.386;9.980;2023-10-19T03:21:01;38.83;;;22.17;;
5428;SDS011;2737;52.386;9.980;2023-10-19T03:23:28;41.90;;;21.93;;
5428;SDS011;2737;52.386;9.980;2023-10-19T03:25:59;41.63;;;22.17;;
5428;SDS011;2737;52.386;9.980;2023-10-19T03:28:40;42.40;;;21.77;;
5428;SDS011;2737;52.386;9.980;2023-10-19T03:31:08;45.93;;;23.10;;
5428;SDS011;2737;52.386;9.980;2023-10-19T03:33:44;45.93;;;22.67;;
5428;SDS011;2737;52.386;9.980;2023-10-19T03:36:13;46.03;;;25.77;;
5428;SDS011;2737;52.386;9.980;2023-10-19T03:38:40;47.93;;;23.80;;
5428;SDS011;2737;52.386;9.980;2023-10-19T03:41:08;40.83;;;23.27;;
5428;SDS011;2737;52.386;9.980;2023-10-19T03:43:36;44.47;;;24.33;;
5428;SDS011;2737;52.386;9.980;2023-10-19T03:46:05;47.97;;;25.33;;
5428;SDS011;2737;52.386;9.980;2023-10-19T03:48:45;42.30;;;23.93;;
5428;SDS011;2737;52.386;9.980;2023-10-19T03:51:12;46.70;;;25.50;;
5428;SDS011;2737;52.386;9.980;2023-10-19T03:53:40;40.10;;;22.80;;
5428;SDS011;2737;52.386;9.980;2023-10-19T03:56:11;44.80;;;23.97;;
5428;SDS011;2737;52.386;9.980;2023-10-19T03:58:38;44.87;;;23.30;;
5428;SDS011;2737;52.386;9.980;2023-10-19T04:01:09;43.40;;;22.63;;
5428;SDS011;2737;52.386;9.980;2023-10-19T04:03:36;45.37;;;23.10;;
5428;SDS011;2737;52.386;9.980;2023-10-19T04:06:04;45.47;;;24.13;;
5428;SDS011;2737;52.386;9.980;2023-10-19T04:08:38;46.03;;;23.43;;
5428;SDS011;2737;52.386;9.980;2023-10-19T04:11:05;40.17;;;24.20;;
5428;SDS011;2737;52.386;9.980;2023-10-19T04:13:37;47.57;;;24.53;;
5428;SDS011;2737;52.386;9.980;2023-10-19T04:16:04;49.00;;;24.90;;
5428;SDS011;2737;52.386;9.980;2023-10-19T04:18:34;44.60;;;24.70;;
5428;SDS011;2737;52.386;9.980;2023-10-19T04:21:09;55.80;;;24.27;;
5428;SDS011;2737;52.386;9.980;2023-10-19T04:23:36;43.90;;;25.17;;
5428;SDS011;2737;52.386;9.980;2023-10-19T04:26:03;41.80;;;23.90;;
5428;SDS011;2737;52.386;9.980;2023-10-19T04:28:36;49.87;;;25.87;;
5428;SDS011;2737;52.386;9.980;2023-10-19T04:31:09;45.33;;;24.03;;
5428;SDS011;2737;52.386;9.980;2023-10-19T04:33:40;44.50;;;24.03;;
5428;SDS011;2737;52.386;9.980;2023-10-19T04:36:12;45.13;;;25.40;;
5428;SDS011;2737;52.386;9.980;2023-10-19T04:38:41;52.33;;;25.83;;
5428;SDS011;2737;52.386;9.980;2023-10-19T04:41:09;51.53;;;25.67;;
5428;SDS011;2737;52.386;9.980;2023-10-19T04:43:37;47.17;;;24.50;;
5428;SDS011;2737;52.386;9.980;2023-10-19T04:46:06;47.97;;;24.90;;
5428;SDS011;2737;52.386;9.980;2023-10-19T04:48:36;46.40;;;25.60;;
5428;SDS011;2737;52.386;9.980;2023-10-19T04:51:05;50.90;;;25.20;;
5428;SDS011;2737;52.386;9.980;2023-10-19T04:53:36;45.23;;;23.70;;
5428;SDS011;2737;52.386;9.980;2023-10-19T04:56:03;45.00;;;24.27;;
5428;SDS011;2737;52.386;9.980;2023-10-19T04:58:32;42.77;;;23.90;;
5428;SDS011;2737;52.386;9.980;2023-10-19T05:00:59;46.13;;;24.73;;
5428;SDS011;2737;52.386;9.980;2023-10-19T05:03:28;40.70;;;24.17;;
5428;SDS011;2737;52.386;9.980;2023-10-19T05:05:56;42.30;;;23.20;;
5428;SDS011;2737;52.386;9.980;2023-10-19T05:08:23;43.53;;;25.10;;
5428;SDS011;2737;52.386;9.980;2023-10-19T05:10:54;41.90;;;22.73;;
5428;SDS011;2737;52.386;9.980;2023-10-19T05:13:24;45.20;;;23.37;;
5428;SDS011;2737;52.386;9.980;2023-10-19T05:15:51;41.03;;;21.10;;
5428;SDS011;2737;52.386;9.980;2023-10-19T05:18:19;43.57;;;21.60;;
5428;SDS011;2737;52.386;9.980;2023-10-19T05:20:46;47.13;;;23.00;;
5428;SDS011;2737;52.386;9.980;2023-10-19T05:23:14;37.80;;;22.20;;
5428;SDS011;2737;52.386;9.980;2023-10-19T05:25:41;39.43;;;21.10;;
5428;SDS011;2737;52.386;9.980;2023-10-19T05:28:10;41.83;;;21.53;;
5428;SDS011;2737;52.386;9.980;2023-10-19T05:30:37;37.13;;;20.17;;
5428;SDS011;2737;52.386;9.980;2023-10-19T05:33:04;40.17;;;21.50;;
5428;SDS011;2737;52.386;9.980;2023-10-19T05:35:31;39.00;;;20.70;;
5428;SDS011;2737;52.386;9.980;2023-10-19T05:38:00;35.17;;;20.07;;
5428;SDS011;2737;52.386;9.980;2023-10-19T05:40:28;39.93;;;20.57;;
5428;SDS011;2737;52.386;9.980;2023-10-19T05:42:56;37.60;;;22.47;;
5428;SDS011;2737;52.386;9.980;2023-10-19T05:45:27;39.00;;;21.30;;
5428;SDS011;2737;52.386;9.980;2023-10-19T05:47:55;38.10;;;21.13;;
5428;SDS011;2737;52.386;9.980;2023-10-19T05:50:23;40.47;;;21.53;;
5428;SDS011;2737;52.386;9.980;2023-10-19T05:52:50;41.57;;;22.33;;
5428;SDS011;2737;52.386;9.980;2023-10-19T05:55:18;38.70;;;21.87;;
5428;SDS011;2737;52.386;9.980;2023-10-19T05:57:46;39.10;;;22.23;;
5428;SDS011;2737;52.386;9.980;2023-10-19T06:00:14;39.60;;;21.40;;
5428;SDS011;2737;52.386;9.980;2023-10-19T06:02:47;40.77;;;22.73;;
5428;SDS011;2737;52.386;9.980;2023-10-19T06:05:15;35.17;;;21.40;;
5428;SDS011;2737;52.386;9.980;2023-10-19T06:07:43;39.53;;;21.93;;
5428;SDS011;2737;52.386;9.980;2023-10-19T06:10:11;41.33;;;21.03;;
5428;SDS011;2737;52.386;9.980;2023-10-19T06:12:42;40.03;;;20.43;;
5428;SDS011;2737;52.386;9.980;2023-10-19T06:15:09;41.57;;;22.63;;
5428;SDS011;2737;52.386;9.980;2023-10-19T06:17:37;38.83;;;20.23;;
5428;SDS011;2737;52.386;9.980;2023-10-19T06:20:07;36.00;;;21.53;;
5428;SDS011;2737;52.386;9.980;2023-10-19T06:22:45;41.20;;;21.60;;
5428;SDS011;2737;52.386;9.980;2023-10-19T06:25:15;43.00;;;20.63;;
5428;SDS011;2737;52.386;9.980;2023-10-19T06:27:43;41.87;;;22.13;;
5428;SDS011;2737;52.386;9.980;2023-10-19T06:30:11;37.63;;;20.93;;
5428;SDS011;2737;52.386;9.980;2023-10-19T06:32:42;37.53;;;21.53;;
5428;SDS011;2737;52.386;9.980;2023-10-19T06:35:13;38.77;;;20.40;;
5428;SDS011;2737;52.386;9.980;2023-10-19T06:37:41;37.63;;;21.57;;
5428;SDS011;2737;52.386;9.980;2023-10-19T06:40:09;40.00;;;21.93;;
5428;SDS011;2737;52.386;9.980;2023-10-19T06:42:38;41.27;;;19.77;;
5428;SDS011;2737;52.386;9.980;2023-10-19T06:45:06;41.70;;;20.20;;
5428;SDS011;2737;52.386;9.980;2023-10-19T06:47:35;32.20;;;18.50;;
5428;SDS011;2737;52.386;9.980;2023-10-19T06:50:04;33.83;;;19.17;;
5428;SDS011;2737;52.386;9.980;2023-10-19T06:52:36;36.50;;;19.53;;
5428;SDS011;2737;52.386;9.980;2023-10-19T06:55:04;41.87;;;20.47;;
5428;SDS011;2737;52.386;9.980;2023-10-19T06:57:38;35.77;;;19.50;;
5428;SDS011;2737;52.386;9.980;2023-10-19T07:00:06;32.53;;;19.00;;
5428;SDS011;2737;52.386;9.980;2023-10-19T07:02:39;39.03;;;19.93;;
5428;SDS011;2737;52.386;9.980;2023-10-19T07:05:08;34.00;;;19.07;;
5428;SDS011;2737;52.386;9.980;2023-10-19T07:07:38;33.90;;;19.53;;
5428;SDS011;2737;52.386;9.980;2023-10-19T07:10:06;35.90;;;19.90;;
5428;SDS011;2737;52.386;9.980;2023-10-19T07:12:34;34.00;;;18.87;;
5428;SDS011;2737;52.386;9.980;2023-10-19T07:15:03;41.00;;;17.43;;
5428;SDS011;2737;52.386;9.980;2023-10-19T07:17:32;28.60;;;17.10;;
5428;SDS011;2737;52.386;9.980;2023-10-19T07:19:59;30.57;;;16.90;;
5428;SDS011;2737;52.386;9.980;2023-10-19T07:22:28;34.07;;;16.70;;
5428;SDS011;2737;52.386;9.980;2023-10-19T07:24:57;33.30;;;17.47;;
5428;SDS011;2737;52.386;9.980;2023-10-19T07:27:25;28.83;;;17.20;;
5428;SDS011;2737;52.386;9.980;2023-10-19T07:29:53;28.53;;;16.67;;
5428;SDS011;2737;52.386;9.980;2023-10-19T07:32:21;34.93;;;18.07;;
5428;SDS011;2737;52.386;9.980;2023-10-19T07:34:48;32.17;;;17.13;;
5428;SDS011;2737;52.386;9.980;2023-10-19T07:37:15;28.73;;;16.47;;
5428;SDS011;2737;52.386;9.980;2023-10-19T07:39:44;29.07;;;16.33;;
5428;SDS011;2737;52.386;9.980;2023-10-19T07:42:14;27.83;;;16.53;;
5428;SDS011;2737;52.386;9.980;2023-10-19T07:44:41;27.00;;;15.93;;
5428;SDS011;2737;52.386;9.980;2023-10-19T07:47:08;25.53;;;15.17;;
5428;SDS011;2737;52.386;9.980;2023-10-19T07:49:35;30.50;;;15.50;;
5428;SDS011;2737;52.386;9.980;2023-10-19T07:52:03;25.60;;;15.00;;
5428;SDS011;2737;52.386;9.980;2023-10-19T07:54:31;27.07;;;15.13;;
5428;SDS011;2737;52.386;9.980;2023-10-19T07:56:59;23.13;;;14.03;;
5428;SDS011;2737;52.386;9.980;2023-10-19T07:59:29;22.30;;;13.50;;
5428;SDS011;2737;52.386;9.980;2023-10-19T08:01:56;24.63;;;14.40;;
5428;SDS011;2737;52.386;9.980;2023-10-19T08:04:26;22.17;;;13.47;;
5428;SDS011;2737;52.386;9.980;2023-10-19T08:06:53;26.73;;;13.83;;
5428;SDS011;2737;52.386;9.980;2023-10-19T08:09:20;22.50;;;13.67;;
5428;SDS011;2737;52.386;9.980;2023-10-19T08:11:49;22.47;;;13.63;;
5428;SDS011;2737;52.386;9.980;2023-10-19T08:14:20;21.30;;;13.63;;
5428;SDS011;2737;52.386;9.980;2023-10-19T08:16:51;22.07;;;13.13;;
5428;SDS011;2737;52.386;9.980;2023-10-19T08:19:18;24.27;;;14.43;;
5428;SDS011;2737;52.386;9.980;2023-10-19T08:21:45;22.73;;;14.30;;
5428;SDS011;2737;52.386;9.980;2023-10-19T08:24:12;22.03;;;12.93;;
5428;SDS011;2737;52.386;9.980;2023-10-19T08:26:43;26.00;;;15.33;;
5428;SDS011;2737;52.386;9.980;2023-10-19T08:29:11;22.00;;;12.60;;
5428;SDS011;2737;52.386;9.980;2023-10-19T08:31:39;24.20;;;13.70;;
5428;SDS011;2737;52.386;9.980;2023-10-19T08:34:07;21.63;;;13.23;;
5428;SDS011;2737;52.386;9.980;2023-10-19T08:36:36;25.07;;;13.90;;
5428;SDS011;2737;52.386;9.980;2023-10-19T08:39:04;21.17;;;13.47;;
5428;SDS011;2737;52.386;9.980;2023-10-19T08:41:32;21.57;;;12.77;;
5428;SDS011;2737;52.386;9.980;2023-10-19T08:44:02;19.73;;;11.93;;
5428;SDS011;2737;52.386;9.980;2023-10-19T08:46:35;17.87;;;11.10;;
5428;SDS011;2737;52.386;9.980;2023-10-19T08:49:03;19.77;;;11.67;;
5428;SDS011;2737;52.386;9.980;2023-10-19T08:51:32;15.57;;;10.73;;
5428;SDS011;2737;52.386;9.980;2023-10-19T08:54:00;16.77;;;10.57;;
5428;SDS011;2737;52.386;9.980;2023-10-19T08:56:28;15.90;;;10.43;;
5428;SDS011;2737;52.386;9.980;2023-10-19T08:58:56;15.10;;;10.90;;
5428;SDS011;2737;52.386;9.980;2023-10-19T09:01:23;12.67;;;8.83;;
5428;SDS011;2737;52.386;9.980;2023-10-19T09:03:53;18.23;;;9.40;;
5428;SDS011;2737;52.386;9.980;2023-10-19T09:06:22;15.60;;;9.57;;
5428;SDS011;2737;52.386;9.980;2023-10-19T09:08:51;14.43;;;8.17;;
5428;SDS011;2737;52.386;9.980;2023-10-19T09:11:18;13.03;;;8.20;;
5428;SDS011;2737;52.386;9.980;2023-10-19T09:13:46;14.80;;;8.50;;
5428;SDS011;2737;52.386;9.980;2023-10-19T09:16:15;13.53;;;7.50;;
5428;SDS011;2737;52.386;9.980;2023-10-19T09:18:43;8.90;;;6.30;;
5428;SDS011;2737;52.386;9.980;2023-10-19T09:21:11;12.07;;;7.60;;
5428;SDS011;2737;52.386;9.980;2023-10-19T09:23:50;10.00;;;6.67;;
5428;SDS011;2737;52.386;9.980;2023-10-19T09:26:18;10.73;;;7.57;;
5428;SDS011;2737;52.386;9.980;2023-10-19T09:28:47;9.30;;;5.87;;
5428;SDS011;2737;52.386;9.980;2023-10-19T09:31:15;8.50;;;6.53;;
5428;SDS011;2737;52.386;9.980;2023-10-19T09:33:44;10.13;;;7.20;;
5428;SDS011;2737;52.386;9.980;2023-10-19T09:36:12;8.27;;;6.70;;
5428;SDS011;2737;52.386;9.980;2023-10-19T09:38:43;9.40;;;7.00;;
5428;SDS011;2737;52.386;9.980;2023-10-19T09:41:15;10.33;;;6.80;;
5428;SDS011;2737;52.386;9.980;2023-10-19T09:43:44;10.63;;;6.80;;
5428;SDS011;2737;52.386;9.980;2023-10-19T09:46:15;13.10;;;8.20;;
5428;SDS011;2737;52.386;9.980;2023-10-19T09:48:47;11.27;;;7.97;;
5428;SDS011;2737;52.386;9.980;2023-10-19T09:51:15;15.40;;;10.03;;
5428;SDS011;2737;52.386;9.980;2023-10-19T09:53:45;15.80;;;10.23;;
5428;SDS011;2737;52.386;9.980;2023-10-19T09:56:19;11.80;;;8.57;;
5428;SDS011;2737;52.386;9.980;2023-10-19T09:58:48;13.27;;;8.60;;
5428;SDS011;2737;52.386;9.980;2023-10-19T10:01:18;11.50;;;8.20;;
5428;SDS011;2737;52.386;9.980;2023-10-19T10:03:47;12.63;;;8.07;;
5428;SDS011;2737;52.386;9.980;2023-10-19T10:06:16;12.17;;;7.53;;
5428;SDS011;2737;52.386;9.980;2023-10-19T10:08:54;10.93;;;7.73;;
5428;SDS011;2737;52.386;9.980;2023-10-19T10:11:24;13.97;;;8.40;;
5428;SDS011;2737;52.386;9.980;2023-10-19T10:13:53;11.53;;;7.63;;
5428;SDS011;2737;52.386;9.980;2023-10-19T10:16:21;10.67;;;8.03;;
5428;SDS011;2737;52.386;9.980;2023-10-19T10:18:50;9.83;;;7.63;;
5428;SDS011;2737;52.386;9.980;2023-10-19T10:21:21;10.20;;;7.27;;
5428;SDS011;2737;52.386;9.980;2023-10-19T10:23:51;9.73;;;7.33;;
5428;SDS011;2737;52.386;9.980;2023-10-19T10:26:20;10.33;;;7.70;;
5428;SDS011;2737;52.386;9.980;2023-10-19T10:31:41;10.63;;;7.67;;
5428;SDS011;2737;52.386;9.980;2023-10-19T10:34:09;9.30;;;7.40;;
5428;SDS011;2737;52.386;9.980;2023-10-19T10:39:25;10.83;;;8.27;;
5428;SDS011;2737;52.386;9.980;2023-10-19T10:41:55;12.70;;;8.20;;
5428;SDS011;2737;52.386;9.980;2023-10-19T10:44:36;10.97;;;8.90;;
5428;SDS011;2737;52.386;9.980;2023-10-19T10:47:05;12.90;;;9.40;;
5428;SDS011;2737;52.386;9.980;2023-10-19T10:49:34;13.10;;;8.80;;
5428;SDS011;2737;52.386;9.980;2023-10-19T10:52:11;14.27;;;9.13;;
5428;SDS011;2737;52.386;9.980;2023-10-19T10:54:38;14.70;;;9.77;;
5428;SDS011;2737;52.386;9.980;2023-10-19T10:57:05;15.03;;;10.47;;
5428;SDS011;2737;52.386;9.980;2023-10-19T10:59:33;16.07;;;9.67;;
5428;SDS011;2737;52.386;9.980;2023-10-19T11:02:01;15.40;;;10.67;;
5428;SDS011;2737;52.386;9.980;2023-10-19T11:04:43;15.50;;;11.13;;
5428;SDS011;2737;52.386;9.980;2023-10-19T11:07:17;17.70;;;10.73;;
5428;SDS011;2737;52.386;9.980;2023-10-19T11:09:45;18.57;;;11.03;;
5428;SDS011;2737;52.386;9.980;2023-10-19T11:12:13;14.43;;;10.03;;
5428;SDS011;2737;52.386;9.980;2023-10-19T11:14:50;12.97;;;10.00;;
5428;SDS011;2737;52.386;9.980;2023-10-19T11:17:20;15.10;;;10.40;;
5428;SDS011;2737;52.386;9.980;2023-10-19T11:19:53;17.20;;;11.20;;
5428;SDS011;2737;52.386;9.980;2023-10-19T11:22:21;16.23;;;11.20;;
5428;SDS011;2737;52.386;9.980;2023-10-19T11:24:50;15.50;;;10.33;;
5428;SDS011;2737;52.386;9.980;2023-10-19T11:27:21;19.60;;;11.50;;
5428;SDS011;2737;52.386;9.980;2023-10-19T11:29:54;14.03;;;10.53;;
5428;SDS011;2737;52.386;9.980;2023-10-19T11:32:24;17.57;;;11.47;;
5428;SDS011;2737;52.386;9.980;2023-10-19T11:34:52;14.90;;;9.93;;
5428;SDS011;2737;52.386;9.980;2023-10-19T11:37:20;14.83;;;10.30;;
5428;SDS011;2737;52.386;9.980;2023-10-19T11:39:47;14.90;;;9.60;;
5428;SDS011;2737;52.386;9.980;2023-10-19T11:42:15;16.33;;;10.90;;
5428;SDS011;2737;52.386;9.980;2023-10-19T11:44:45;16.77;;;9.83;;
5428;SDS011;2737;52.386;9.980;2023-10-19T11:47:12;18.00;;;11.87;;
5428;SDS011;2737;52.386;9.980;2023-10-19T11:49:41;18.33;;;11.90;;
5428;SDS011;2737;52.386;9.980;2023-10-19T11:52:08;17.77;;;11.70;;
5428;SDS011;2737;52.386;9.980;2023-10-19T11:54:35;19.60;;;11.83;;
5428;SDS011;2737;52.386;9.980;2023-10-19T11:57:02;19.63;;;12.37;;
5428;SDS011;2737;52.386;9.980;2023-10-19T11:59:29;21.13;;;12.73;;
5428;SDS011;2737;52.386;9.980;2023-10-19T12:01:56;22.30;;;12.87;;
5428;SDS011;2737;52.386;9.980;2023-10-19T12:04:24;18.63;;;11.17;;
5428;SDS011;2737;52.386;9.980;2023-10-19T12:06:53;21.47;;;12.50;;
5428;SDS011;2737;52.386;9.980;2023-10-19T12:09:20;20.03;;;11.73;;
5428;SDS011;2737;52.386;9.980;2023-10-19T12:11:49;23.43;;;12.20;;
5428;SDS011;2737;52.386;9.980;2023-10-19T12:14:18;19.43;;;11.93;;
5428;SDS011;2737;52.386;9.980;2023-10-19T12:16:46;19.33;;;11.90;;
5428;SDS011;2737;52.386;9.980;2023-10-19T12:19:13;16.97;;;10.60;;
5428;SDS011;2737;52.386;9.980;2023-10-19T12:21:42;20.57;;;11.17;;
5428;SDS011;2737;52.386;9.980;2023-10-19T12:24:11;18.67;;;12.47;;
5428;SDS011;2737;52.386;9.980;2023-10-19T12:26:38;18.07;;;11.57;;
5428;SDS011;2737;52.386;9.980;2023-10-19T12:29:05;21.00;;;11.90;;
5428;SDS011;2737;52.386;9.980;2023-10-19T12:31:36;20.50;;;11.20;;
5428;SDS011;2737;52.386;9.980;2023-10-19T12:34:06;21.00;;;13.13;;
5428;SDS011;2737;52.386;9.980;2023-10-19T12:36:34;19.67;;;12.50;;
5428;SDS011;2737;52.386;9.980;2023-10-19T12:39:01;19.63;;;12.50;;
5428;SDS011;2737;52.386;9.980;2023-10-19T12:41:32;20.17;;;11.83;;
5428;SDS011;2737;52.386;9.980;2023-10-19T12:43:59;24.27;;;12.23;;
5428;SDS011;2737;52.386;9.980;2023-10-19T12:46:27;21.03;;;12.10;;
5428;SDS011;2737;52.386;9.980;2023-10-19T12:48:55;22.20;;;12.93;;
5428;SDS011;2737;52.386;9.980;2023-10-19T12:51:23;26.20;;;13.47;;
5428;SDS011;2737;52.386;9.980;2023-10-19T12:53:51;18.60;;;12.60;;
5428;SDS011;2737;52.386;9.980;2023-10-19T12:56:18;22.00;;;12.97;;
5428;SDS011;2737;52.386;9.980;2023-10-19T12:58:46;19.53;;;11.13;;
5428;SDS011;2737;52.386;9.980;2023-10-19T13:01:15;20.20;;;12.20;;
5428;SDS011;2737;52.386;9.980;2023-10-19T13:03:43;23.63;;;13.13;;
5428;SDS011;2737;52.386;9.980;2023-10-19T13:06:11;21.80;;;12.83;;
5428;SDS011;2737;52.386;9.980;2023-10-19T13:08:39;20.10;;;12.20;;
5428;SDS011;2737;52.386;9.980;2023-10-19T13:11:07;23.70;;;12.37;;
5428;SDS011;2737;52.386;9.980;2023-10-19T13:13:35;20.07;;;13.03;;
5428;SDS011;2737;52.386;9.980;2023-10-19T13:16:04;22.17;;;12.67;;
5428;SDS011;2737;52.386;9.980;2023-10-19T13:18:34;22.77;;;13.60;;
5428;SDS011;2737;52.386;9.980;2023-10-19T13:21:01;25.20;;;14.40;;
5428;SDS011;2737;52.386;9.980;2023-10-19T13:23:30;22.93;;;12.97;;
5428;SDS011;2737;52.386;9.980;2023-10-19T13:25:59;21.17;;;13.33;;
5428;SDS011;2737;52.386;9.980;2023-10-19T13:28:42;23.57;;;14.50;;
5428;SDS011;2737;52.386;9.980;2023-10-19T13:31:10;26.50;;;14.13;;
5428;SDS011;2737;52.386;9.980;2023-10-19T13:33:39;33.80;;;14.63;;
5428;SDS011;2737;52.386;9.980;2023-10-19T13:36:09;27.90;;;14.67;;
5428;SDS011;2737;52.386;9.980;2023-10-19T13:38:36;28.03;;;14.33;;
5428;SDS011;2737;52.386;9.980;2023-10-19T13:41:03;27.00;;;14.37;;
5428;SDS011;2737;52.386;9.980;2023-10-19T13:43:32;25.80;;;14.77;;
5428;SDS011;2737;52.386;9.980;2023-10-19T13:46:00;28.73;;;15.43;;
5428;SDS011;2737;52.386;9.980;2023-10-19T13:48:31;30.83;;;15.77;;
5428;SDS011;2737;52.386;9.980;2023-10-19T13:50:58;26.63;;;15.50;;
5428;SDS011;2737;52.386;9.980;2023-10-19T13:53:30;31.10;;;17.07;;
5428;SDS011;2737;52.386;9.980;2023-10-19T13:55:57;34.57;;;18.47;;
5428;SDS011;2737;52.386;9.980;2023-10-19T13:58:24;37.00;;;18.40;;
5428;SDS011;2737;52.386;9.980;2023-10-19T14:00:52;30.73;;;17.30;;
5428;SDS011;2737;52.386;9.980;2023-10-19T14:03:19;33.33;;;17.40;;
5428;SDS011;2737;52.386;9.980;2023-10-19T14:05:47;35.90;;;18.53;;
5428;SDS011;2737;52.386;9.980;2023-10-19T14:08:15;41.67;;;20.03;;
5428;SDS011;2737;52.386;9.980;2023-10-19T14:10:45;36.13;;;18.97;;
5428;SDS011;2737;52.386;9.980;2023-10-19T14:13:12;35.30;;;19.10;;
5428;SDS011;2737;52.386;9.980;2023-10-19T14:15:40;39.20;;;19.07;;
5428;SDS011;2737;52.386;9.980;2023-10-19T14:18:07;36.90;;;19.07;;
5428;SDS011;2737;52.386;9.980;2023-10-19T14:20:35;39.23;;;20.43;;
5428;SDS011;2737;52.386;9.980;2023-10-19T14:23:05;38.83;;;20.93;;
5428;SDS011;2737;52.386;9.980;2023-10-19T14:25:35;43.43;;;20.67;;
5428;SDS011;2737;52.386;9.980;2023-10-19T14:28:04;38.67;;;20.93;;
5428;SDS011;2737;52.386;9.980;2023-10-19T14:30:32;43.10;;;21.17;;
5428;SDS011;2737;52.386;9.980;2023-10-19T14:32:59;47.43;;;21.97;;
5428;SDS011;2737;52.386;9.980;2023-10-19T14:35:26;49.77;;;21.80;;
5428;SDS011;2737;52.386;9.980;2023-10-19T14:37:54;45.23;;;21.93;;
5428;SDS011;2737;52.386;9.980;2023-10-19T14:40:26;49.83;;;22.50;;
5428;SDS011;2737;52.386;9.980;2023-10-19T14:42:54;47.00;;;22.30;;
5428;SDS011;2737;52.386;9.980;2023-10-19T14:45:24;47.07;;;23.40;;
5428;SDS011;2737;52.386;9.980;2023-10-19T14:47:53;46.80;;;24.17;;
5428;SDS011;2737;52.386;9.980;2023-10-19T14:50:21;52.77;;;23.27;;
5428;SDS011;2737;52.386;9.980;2023-10-19T14:52:49;49.53;;;23.20;;
5428;SDS011;2737;52.386;9.980;2023-10-19T14:55:17;60.17;;;23.23;;
5428;SDS011;2737;52.386;9.980;2023-10-19T14:57:47;53.60;;;26.43;;
5428;SDS011;2737;52.386;9.980;2023-10-19T15:00:15;55.30;;;26.23;;
5428;SDS011;2737;52.386;9.980;2023-10-19T15:02:51;52.30;;;25.30;;
5428;SDS011;2737;52.386;9.980;2023-10-19T15:05:20;56.90;;;26.63;;
5428;SDS011;2737;52.386;9.980;2023-10-19T15:07:50;56.87;;;26.10;;